Time;durP1;ratioP1;P1;durP2;ratioP2;P2;SDS_P1;SDS_P2;PMS_P1;PMS_P2;Temp;Humidity;BMP_temperature;BMP_pressure;BME280_temperature;BME280_humidity;BME280_pressure;Samples;Min_cycle;Max_cycle;Signal;HPM_P1;HPM_P2
2023/10/28 00:03:36;;;;;;;27.27;19.07;;;7.70;99.90;;;;;;10247582;29;20229;-86
2023/10/28 00:08:39;;;;;;;17.87;12.10;;;7.60;99.90;;;;;;10247304;28;20234;-86
2023/10/28 00:13:42;;;;;;;20.30;13.47;;;7.70;99.90;;;;;;10246131;28;20746;-86
2023/10/28 00:18:44;;;;;;;20.00;12.80;;;8.00;99.90;;;;;;10245621;29;20724;-86
2023/10/28 00:23:47;;;;;;;17.97;12.53;;;8.10;99.90;;;;;;10238266;29;20234;-86
2023/10/28 00:28:50;;;;;;;18.17;12.93;;;8.30;99.90;;;;;;10234284;28;20254;-86
2023/10/28 00:33:52;;;;;;;21.53;13.27;;;8.50;99.90;;;;;;10200572;29;20242;-86
2023/10/28 00:38:55;;;;;;;20.50;12.27;;;8.40;99.90;;;;;;10236181;28;20254;-87
2023/10/28 00:43:58;;;;;;;24.20;15.30;;;8.50;99.90;;;;;;10217786;28;20230;-87
2023/10/28 00:49:00;;;;;;;23.60;14.20;;;8.50;99.90;;;;;;10235843;28;20230;-87
2023/10/28 00:54:03;;;;;;;26.33;14.57;;;8.30;99.90;;;;;;10215502;29;20290;-86
2023/10/28 00:59:07;;;;;;;17.57;12.13;;;8.50;99.90;;;;;;10230687;28;20313;-87
2023/10/28 01:04:10;;;;;;;20.53;13.57;;;8.50;99.90;;;;;;10219014;28;20230;-86
2023/10/28 01:09:13;;;;;;;15.30;11.90;;;8.50;99.90;;;;;;10211512;29;20246;-87
2023/10/28 01:14:16;;;;;;;21.87;13.50;;;8.60;99.90;;;;;;10217140;28;20646;-87
2023/10/28 01:19:19;;;;;;;19.37;13.13;;;8.20;99.90;;;;;;10245361;28;20748;-87
2023/10/28 01:24:21;;;;;;;19.77;13.13;;;8.70;99.90;;;;;;10212651;29;20237;-86
2023/10/28 01:29:24;;;;;;;19.20;13.70;;;8.80;99.90;;;;;;10247413;28;20265;-86
2023/10/28 01:34:27;;;;;;;21.40;14.77;;;8.90;99.90;;;;;;10227844;29;20246;-86
2023/10/28 01:39:29;;;;;;;21.17;14.80;;;8.80;99.90;;;;;;10243874;29;20234;-86
2023/10/28 01:44:34;;;;;;;26.07;16.87;;;8.90;99.90;;;;;;10233478;29;20522;-86
2023/10/28 01:49:38;;;;;;;27.63;19.37;;;9.00;99.90;;;;;;10252168;29;20230;-86
2023/10/28 01:54:40;;;;;;;27.30;17.50;;;9.10;99.90;;;;;;10233851;29;20282;-86
2023/10/28 01:59:44;;;;;;;28.57;17.70;;;9.20;99.90;;;;;;10234405;28;20254;-87
2023/10/28 02:04:47;;;;;;;21.70;15.93;;;9.30;99.90;;;;;;10251178;29;20238;-86
2023/10/28 02:09:50;;;;;;;27.40;15.77;;;9.30;99.90;;;;;;10249604;29;20234;-87
2023/10/28 02:14:52;;;;;;;25.87;16.43;;;9.30;99.90;;;;;;10251026;28;20296;-86
2023/10/28 02:19:56;;;;;;;23.40;15.57;;;9.20;99.90;;;;;;10251741;29;20808;-86
2023/10/28 02:24:59;;;;;;;21.57;14.47;;;9.20;99.90;;;;;;10253916;28;20234;-86
2023/10/28 02:30:12;;;;;;;21.93;15.10;;;9.30;99.90;;;;;;10290564;28;20237;-87
2023/10/28 02:35:14;;;;;;;20.73;14.60;;;9.30;99.90;;;;;;10273038;28;20257;-87
2023/10/28 02:40:17;;;;;;;21.50;15.77;;;9.40;99.90;;;;;;10273020;28;20308;-87
2023/10/28 02:45:19;;;;;;;18.33;12.67;;;9.50;99.90;;;;;;10273323;28;20207;-87
2023/10/28 02:50:22;;;;;;;22.40;13.97;;;9.70;99.90;;;;;;10273727;28;20902;-86
2023/10/28 02:55:24;;;;;;;18.10;13.33;;;9.70;99.90;;;;;;10270638;28;20326;-86
2023/10/28 03:00:27;;;;;;;19.40;12.60;;;9.70;99.90;;;;;;10273207;28;20238;-87
2023/10/28 03:05:30;;;;;;;19.80;13.13;;;9.80;99.90;;;;;;10289778;28;20292;-87
2023/10/28 03:10:32;;;;;;;18.40;12.97;;;10.10;99.90;;;;;;10289197;28;20284;-87
2023/10/28 03:15:36;;;;;;;17.97;13.70;;;10.20;99.90;;;;;;10289752;28;20264;-87
2023/10/28 03:20:39;;;;;;;18.90;12.37;;;10.20;99.90;;;;;;10272157;28;20233;-87
2023/10/28 03:25:42;;;;;;;16.70;12.60;;;10.10;99.90;;;;;;10289971;28;20265;-87
2023/10/28 03:30:45;;;;;;;18.70;13.20;;;10.10;99.90;;;;;;10288792;28;20269;-87
2023/10/28 03:35:47;;;;;;;20.53;14.13;;;9.90;99.90;;;;;;10271654;28;20665;-87
2023/10/28 03:40:50;;;;;;;21.60;13.93;;;9.90;99.90;;;;;;10283005;28;20255;-86
2023/10/28 03:45:53;;;;;;;17.70;12.37;;;9.90;99.90;;;;;;10270611;28;20242;-87
2023/10/28 03:51:03;;;;;;;24.03;14.90;;;9.90;99.90;;;;;;10288214;28;20234;-87
2023/10/28 03:56:05;;;;;;;20.93;15.07;;;9.60;99.90;;;;;;10287061;28;20247;-87
2023/10/28 04:01:08;;;;;;;20.63;14.13;;;9.50;99.90;;;;;;10288461;28;20296;-87
2023/10/28 04:06:10;;;;;;;24.53;15.90;;;9.50;99.90;;;;;;10268961;28;20253;-87
2023/10/28 04:11:13;;;;;;;29.57;18.33;;;9.60;99.90;;;;;;10287518;28;20233;-87
2023/10/28 04:16:16;;;;;;;30.03;18.63;;;9.50;99.90;;;;;;10286227;28;20288;-87
2023/10/28 04:21:18;;;;;;;26.57;19.03;;;9.70;99.90;;;;;;10287627;28;20272;-87
2023/10/28 04:26:21;;;;;;;23.43;17.10;;;9.70;99.90;;;;;;10284963;28;20794;-87
2023/10/28 04:31:24;;;;;;;22.03;15.10;;;9.90;99.90;;;;;;10269838;28;20237;-87
2023/10/28 04:36:26;;;;;;;23.97;16.00;;;9.80;99.90;;;;;;10286849;28;20253;-87
2023/10/28 04:41:29;;;;;;;21.77;15.40;;;9.80;99.90;;;;;;10285066;28;20225;-87
2023/10/28 04:46:31;;;;;;;24.77;17.53;;;9.80;99.90;;;;;;10281974;28;20233;-87
2023/10/28 04:51:34;;;;;;;24.47;17.17;;;9.70;99.90;;;;;;10284818;28;20695;-87
2023/10/28 04:56:37;;;;;;;22.33;15.43;;;9.70;99.90;;;;;;10285914;28;20262;-87
2023/10/28 05:01:39;;;;;;;24.27;15.63;;;9.80;99.90;;;;;;10277052;28;20242;-87
2023/10/28 05:06:43;;;;;;;25.63;16.87;;;9.80;99.90;;;;;;10268569;28;20225;-87
2023/10/28 05:11:53;;;;;;;22.73;15.47;;;9.70;99.90;;;;;;10286552;28;20221;-87
2023/10/28 05:16:56;;;;;;;21.50;15.63;;;9.70;99.90;;;;;;10282358;28;20280;-87
2023/10/28 05:22:01;;;;;;;23.90;15.10;;;9.60;99.90;;;;;;10294233;28;20287;-87
2023/10/28 05:27:04;;;;;;;19.80;14.50;;;9.60;99.90;;;;;;10292344;28;20316;-87
2023/10/28 05:32:08;;;;;;;25.43;16.97;;;9.60;99.90;;;;;;10278937;28;20238;-87
2023/10/28 05:37:11;;;;;;;26.57;16.87;;;9.60;99.90;;;;;;10275088;28;20258;-87
2023/10/28 05:42:17;;;;;;;25.47;16.60;;;9.40;99.90;;;;;;10293645;28;20705;-87
2023/10/28 05:47:19;;;;;;;22.50;15.40;;;9.50;99.90;;;;;;10292279;28;20308;-87
2023/10/28 05:52:22;;;;;;;23.03;15.13;;;9.50;99.90;;;;;;10291992;28;20672;-87
2023/10/28 05:57:26;;;;;;;20.10;13.37;;;9.50;99.90;;;;;;10288602;28;20312;-87
2023/10/28 06:02:29;;;;;;;24.37;16.20;;;9.70;99.90;;;;;;10282834;28;20226;-87
2023/10/28 06:07:32;;;;;;;25.93;16.20;;;9.70;99.90;;;;;;10291284;28;20276;-86
2023/10/28 06:12:35;;;;;;;24.37;13.87;;;9.80;99.90;;;;;;10291049;28;20743;-86
2023/10/28 06:17:38;;;;;;;23.40;15.10;;;9.90;99.90;;;;;;10290961;28;20256;-87
2023/10/28 06:22:42;;;;;;;19.90;12.73;;;9.80;99.90;;;;;;10272665;28;20235;-87
2023/10/28 06:27:45;;;;;;;21.43;15.07;;;9.80;99.90;;;;;;10290720;28;20261;-87
2023/10/28 06:32:47;;;;;;;20.37;13.83;;;10.10;99.90;;;;;;10272162;28;20284;-87
2023/10/28 06:37:50;;;;;;;16.37;11.00;;;10.20;99.90;;;;;;10290136;28;20716;-87
2023/10/28 06:42:52;;;;;;;25.30;15.17;;;10.30;99.90;;;;;;10289834;28;20230;-87
2023/10/28 06:47:55;;;;;;;20.13;13.30;;;10.40;99.90;;;;;;10289466;28;20237;-87
2023/10/28 06:52:59;;;;;;;21.63;12.97;;;10.40;99.90;;;;;;10290569;28;20295;-87
2023/10/28 06:58:02;;;;;;;17.57;12.23;;;10.30;99.90;;;;;;10288156;28;20265;-87
2023/10/28 07:03:04;;;;;;;18.60;11.40;;;10.40;99.90;;;;;;10271131;28;20223;-86
2023/10/28 07:08:07;;;;;;;15.33;10.73;;;10.50;99.90;;;;;;10289005;28;20235;-86
2023/10/28 07:13:12;;;;;;;16.47;10.90;;;10.60;99.90;;;;;;10289266;28;20241;-86
2023/10/28 07:18:14;;;;;;;17.87;11.23;;;10.30;99.90;;;;;;10286518;28;20287;-87
2023/10/28 07:23:20;;;;;;;15.33;11.07;;;10.30;99.90;;;;;;10276574;28;20293;-87
2023/10/28 07:28:24;;;;;;;14.40;9.33;;;10.50;99.90;;;;;;10287469;28;20254;-86
2023/10/28 07:33:27;;;;;;;19.90;12.83;;;10.70;99.90;;;;;;10266786;28;20225;-86
2023/10/28 07:38:30;;;;;;;20.07;13.77;;;10.80;99.90;;;;;;10284629;28;20254;-86
2023/10/28 07:43:32;;;;;;;16.40;11.00;;;10.80;99.90;;;;;;10286937;28;20296;-87
2023/10/28 07:48:35;;;;;;;19.60;12.90;;;10.90;99.90;;;;;;10287432;28;20222;-86
2023/10/28 07:53:37;;;;;;;13.73;9.50;;;10.90;99.90;;;;;;10286224;28;20889;-86
2023/10/28 07:58:40;;;;;;;17.10;11.23;;;11.00;99.90;;;;;;10273263;28;20296;-86
2023/10/28 08:03:44;;;;;;;24.47;14.93;;;10.90;99.90;;;;;;10268664;28;20238;-85
2023/10/28 08:08:46;;;;;;;23.27;15.17;;;10.80;99.90;;;;;;10288368;28;20316;-86
2023/10/28 08:13:49;;;;;;;30.20;17.50;;;11.20;99.90;;;;;;10280750;28;20238;-85
2023/10/28 08:18:52;;;;;;;27.30;15.00;;;11.40;99.90;;;;;;10258642;28;20257;-87
2023/10/28 08:23:55;;;;;;;34.07;18.57;;;11.40;99.90;;;;;;10283113;28;20620;-85
2023/10/28 08:29:00;;;;;;;20.90;13.73;;;11.20;99.90;;;;;;10248785;28;20296;-86
2023/10/28 08:34:04;;;;;;;23.90;16.17;;;11.20;99.90;;;;;;10245448;29;20227;-85
2023/10/28 08:39:07;;;;;;;25.63;15.60;;;10.80;99.90;;;;;;10245160;28;20313;-85
2023/10/28 08:44:13;;;;;;;24.23;15.27;;;10.60;99.90;;;;;;10227263;29;20250;-85
2023/10/28 08:49:17;;;;;;;24.57;13.10;;;10.40;99.90;;;;;;10244959;29;20234;-86
2023/10/28 08:54:21;;;;;;;16.47;9.93;;;10.30;99.90;;;;;;10244647;28;20297;-85
2023/10/28 08:59:25;;;;;;;17.30;11.13;;;10.60;99.90;;;;;;10245304;29;20247;-85
2023/10/28 09:04:28;;;;;;;15.77;10.47;;;11.10;99.90;;;;;;10240434;29;20294;-85
2023/10/28 09:09:31;;;;;;;17.67;12.07;;;11.60;99.90;;;;;;10241361;29;20230;-85
2023/10/28 09:14:33;;;;;;;19.47;11.87;;;11.50;99.90;;;;;;10245109;29;20237;-85
2023/10/28 09:19:36;;;;;;;14.20;10.00;;;11.30;99.90;;;;;;10245048;29;20246;-85
2023/10/28 09:24:43;;;;;;;18.97;11.77;;;11.70;99.90;;;;;;10226117;28;20240;-85
2023/10/28 09:29:45;;;;;;;14.03;9.40;;;11.60;99.90;;;;;;10245875;29;20244;-85
2023/10/28 09:34:48;;;;;;;13.03;8.60;;;11.60;99.90;;;;;;10246093;29;20591;-85
2023/10/28 09:39:51;;;;;;;17.80;9.73;;;11.70;99.90;;;;;;10244772;29;20352;-85
2023/10/28 09:44:53;;;;;;;20.80;11.70;;;11.80;99.90;;;;;;10245128;29;20297;-85
2023/10/28 09:50:03;;;;;;;15.90;9.83;;;11.50;99.90;;;;;;10245006;29;20261;-85
2023/10/28 09:55:11;;;;;;;16.63;9.97;;;11.40;99.90;;;;;;10243509;29;20231;-85
2023/10/28 10:00:18;;;;;;;13.50;9.23;;;11.40;99.90;;;;;;10244823;29;20273;-85
2023/10/28 10:05:34;;;;;;;9.30;6.90;;;11.50;99.90;;;;;;10248890;28;20299;-85
2023/10/28 10:10:46;;;;;;;18.00;12.30;;;11.60;99.90;;;;;;10250543;29;20234;-85
2023/10/28 10:15:58;;;;;;;13.70;8.40;;;11.70;99.90;;;;;;10232997;29;20769;-86
2023/10/28 10:21:12;;;;;;;14.63;9.33;;;11.50;99.90;;;;;;10243852;29;20258;-85
2023/10/28 10:26:27;;;;;;;17.10;11.03;;;11.70;99.90;;;;;;10250990;29;20309;-85
2023/10/28 10:31:31;;;;;;;18.00;10.27;;;11.70;99.90;;;;;;10249635;28;20246;-85
2023/10/28 10:36:41;;;;;;;14.90;9.97;;;11.90;99.90;;;;;;10232047;29;20230;-85
2023/10/28 10:41:52;;;;;;;9.23;7.17;;;11.90;99.90;;;;;;10249541;29;20234;-85
2023/10/28 10:46:57;;;;;;;10.37;6.90;;;11.80;99.90;;;;;;10232122;28;20734;-86
2023/10/28 10:52:02;;;;;;;10.63;8.13;;;11.90;99.90;;;;;;10249179;28;20214;-85
2023/10/28 10:57:06;;;;;;;11.93;8.13;;;12.00;99.90;;;;;;10222430;29;20259;-82
2023/10/28 11:02:10;;;;;;;9.90;7.20;;;12.00;99.90;;;;;;10243527;28;20238;-83
2023/10/28 11:07:14;;;;;;;7.83;5.70;;;12.30;99.90;;;;;;10246475;29;20298;-87
2023/10/28 11:12:22;;;;;;;7.70;5.13;;;12.30;99.90;;;;;;10250023;29;20239;-87
2023/10/28 11:17:25;;;;;;;6.40;5.80;;;12.60;99.90;;;;;;10231350;29;20717;-87
2023/10/28 11:22:28;;;;;;;7.30;5.57;;;12.50;99.90;;;;;;10231695;29;20241;-88
2023/10/28 11:27:31;;;;;;;10.77;9.50;;;12.40;99.90;;;;;;10248922;28;20924;-88
2023/10/28 11:32:41;;;;;;;11.27;7.90;;;12.30;99.90;;;;;;10231988;29;20244;-88
2023/10/28 11:37:44;;;;;;;9.67;7.30;;;11.90;99.90;;;;;;10231941;29;20285;-87
2023/10/28 11:42:46;;;;;;;6.37;5.73;;;12.00;99.90;;;;;;10249600;29;20669;-87
2023/10/28 11:47:49;;;;;;;6.57;5.30;;;12.10;99.90;;;;;;10248488;28;20310;-87
2023/10/28 11:52:51;;;;;;;8.17;6.07;;;12.10;99.90;;;;;;10231586;29;20792;-87
2023/10/28 11:57:54;;;;;;;10.43;7.33;;;12.30;99.90;;;;;;10247998;29;20270;-88
2023/10/28 12:02:58;;;;;;;9.33;7.23;;;12.40;99.90;;;;;;10247746;29;20282;-87
2023/10/28 12:08:01;;;;;;;5.77;4.77;;;12.50;99.90;;;;;;10230553;29;20275;-87
2023/10/28 12:13:04;;;;;;;6.40;5.73;;;12.50;99.90;;;;;;10230633;29;20229;-87
2023/10/28 12:18:07;;;;;;;7.40;6.60;;;12.20;99.90;;;;;;10230483;29;20308;-87
2023/10/28 12:23:13;;;;;;;7.37;4.47;;;12.20;99.90;;;;;;10247052;29;20239;-87
2023/10/28 12:28:15;;;;;;;5.87;5.00;;;12.20;99.90;;;;;;10246239;28;20328;-87
2023/10/28 12:33:18;;;;;;;5.93;5.07;;;12.00;99.90;;;;;;10230086;29;20682;-87
2023/10/28 12:38:20;;;;;;;5.70;5.10;;;11.90;99.90;;;;;;10246639;29;20783;-87
2023/10/28 12:43:23;;;;;;;7.47;6.27;;;11.80;99.90;;;;;;10254458;28;20226;-88
2023/10/28 12:48:26;;;;;;;6.13;5.53;;;11.50;99.90;;;;;;10286335;28;20246;-88
2023/10/28 12:53:29;;;;;;;6.63;5.40;;;11.50;99.90;;;;;;10268644;28;20626;-88
2023/10/28 12:58:32;;;;;;;6.47;4.83;;;11.70;99.90;;;;;;10285470;28;20264;-88
2023/10/28 13:03:35;;;;;;;33.93;21.33;;;11.90;99.90;;;;;;10286189;28;20259;-88
2023/10/28 13:08:38;;;;;;;6.57;5.37;;;12.00;99.90;;;;;;10268855;28;20250;-87
2023/10/28 13:13:40;;;;;;;5.60;3.73;;;11.90;99.90;;;;;;10228856;28;20239;-88
2023/10/28 13:18:43;;;;;;;9.00;7.07;;;11.90;99.90;;;;;;10246766;28;20308;-88
2023/10/28 13:23:45;;;;;;;7.53;6.60;;;12.00;99.90;;;;;;10228955;28;20245;-88
2023/10/28 13:28:49;;;;;;;9.40;6.57;;;11.80;99.90;;;;;;10245875;28;20262;-87
2023/10/28 13:33:52;;;;;;;9.47;7.07;;;11.90;99.90;;;;;;10245063;28;20241;-87
2023/10/28 13:38:55;;;;;;;6.17;5.47;;;12.10;99.90;;;;;;10249523;28;20258;-88
2023/10/28 13:43:57;;;;;;;8.97;7.30;;;12.20;99.90;;;;;;10253794;28;20653;-87
2023/10/28 13:49:01;;;;;;;10.90;6.87;;;12.20;99.90;;;;;;10252434;28;20703;-88
2023/10/28 13:54:03;;;;;;;6.20;5.37;;;12.00;99.90;;;;;;10236578;28;20300;-87
2023/10/28 13:59:06;;;;;;;7.73;6.63;;;12.20;99.90;;;;;;10252940;28;20277;-87
2023/10/28 14:04:09;;;;;;;8.33;5.77;;;12.10;99.90;;;;;;10235334;28;20246;-87
2023/10/28 14:09:14;;;;;;;6.47;5.77;;;12.00;99.90;;;;;;10235658;28;20764;-88
2023/10/28 14:14:18;;;;;;;7.73;5.77;;;12.10;99.90;;;;;;10252177;28;20250;-88
2023/10/28 14:19:20;;;;;;;8.20;6.27;;;12.00;99.90;;;;;;10233821;28;20265;-88
2023/10/28 14:24:23;;;;;;;6.67;5.73;;;11.80;99.90;;;;;;10251991;28;20635;-88
2023/10/28 14:29:25;;;;;;;6.43;4.53;;;11.70;99.90;;;;;;10251760;28;20263;-87
2023/10/28 14:34:28;;;;;;;6.27;5.67;;;11.50;99.90;;;;;;10251626;28;20992;-88
2023/10/28 14:39:31;;;;;;;9.93;7.07;;;11.50;99.90;;;;;;10251289;28;20261;-87
2023/10/28 14:44:33;;;;;;;7.57;6.10;;;11.50;99.90;;;;;;10251284;28;20673;-87
2023/10/28 14:49:36;;;;;;;9.60;7.10;;;11.20;99.90;;;;;;10233047;28;20235;-87
2023/10/28 14:54:38;;;;;;;8.97;6.60;;;11.00;99.90;;;;;;10250215;28;20238;-87
2023/10/28 14:59:41;;;;;;;13.27;9.13;;;11.20;99.90;;;;;;10233637;28;21003;-88
2023/10/28 15:04:49;;;;;;;15.53;9.83;;;11.20;99.90;;;;;;10250814;28;20239;-88
2023/10/28 15:09:53;;;;;;;21.20;11.73;;;11.20;99.90;;;;;;10232915;29;20265;-87
2023/10/28 15:14:56;;;;;;;19.13;11.03;;;11.10;99.90;;;;;;10216090;29;20300;-87
2023/10/28 15:19:58;;;;;;;28.47;14.00;;;11.00;99.90;;;;;;10249244;29;20728;-87
2023/10/28 15:25:01;;;;;;;82.33;31.90;;;10.90;99.90;;;;;;10248306;29;20266;-86
2023/10/28 15:30:10;;;;;;;149.60;53.00;;;10.80;99.90;;;;;;10247718;28;20249;-87
2023/10/28 15:35:14;;;;;;;38.27;15.57;;;10.70;99.90;;;;;;10248316;29;20242;-87
2023/10/28 15:40:18;;;;;;;128.93;42.73;;;10.70;99.90;;;;;;10231679;29;20289;-87
2023/10/28 15:45:23;;;;;;;72.90;23.87;;;10.70;99.90;;;;;;10248298;29;20305;-88
2023/10/28 15:50:25;;;;;;;73.50;25.03;;;10.70;99.90;;;;;;10235106;29;20649;-87
2023/10/28 15:55:28;;;;;;;92.87;28.27;;;10.60;99.90;;;;;;10209016;29;20290;-88
2023/10/28 16:00:34;;;;;;;76.03;25.27;;;10.70;99.90;;;;;;10191420;29;20286;-87
2023/10/28 16:05:37;;;;;;;43.40;18.00;;;10.60;99.90;;;;;;10190894;29;20232;-87
2023/10/28 16:10:40;;;;;;;12.33;10.00;;;10.70;99.90;;;;;;10249570;28;20248;-88
2023/10/28 16:15:43;;;;;;;10.67;8.13;;;10.80;99.90;;;;;;10269356;28;20636;-87
2023/10/28 16:20:46;;;;;;;10.20;8.80;;;10.70;99.90;;;;;;10264201;28;20258;-88
2023/10/28 16:25:48;;;;;;;10.40;7.27;;;10.70;99.90;;;;;;10247477;29;20266;-88
2023/10/28 16:30:54;;;;;;;7.50;5.50;;;10.80;99.90;;;;;;10246598;28;20322;-87
2023/10/28 16:35:56;;;;;;;8.57;5.93;;;10.90;99.90;;;;;;10244016;28;20289;-88
2023/10/28 16:40:59;;;;;;;11.03;8.50;;;11.10;99.90;;;;;;10190961;29;20286;-87
2023/10/28 16:46:03;;;;;;;11.83;9.60;;;11.10;99.90;;;;;;10207436;29;20246;-88
2023/10/28 16:51:14;;;;;;;13.10;8.93;;;11.00;99.90;;;;;;10190803;29;20250;-87
2023/10/28 16:56:18;;;;;;;9.87;7.37;;;11.10;99.90;;;;;;10207463;29;20255;-87
2023/10/28 17:01:21;;;;;;;10.33;7.37;;;11.20;99.90;;;;;;10207449;29;20294;-87
2023/10/28 17:06:25;;;;;;;12.53;8.73;;;10.90;99.90;;;;;;10190447;29;20250;-87
2023/10/28 17:11:28;;;;;;;14.50;9.63;;;10.80;99.90;;;;;;10207032;29;20258;-88
2023/10/28 17:16:31;;;;;;;10.27;8.03;;;10.80;99.90;;;;;;10206475;29;20640;-88
2023/10/28 17:21:33;;;;;;;13.83;10.50;;;10.60;99.90;;;;;;10189774;29;20365;-88
2023/10/28 17:26:36;;;;;;;14.47;9.63;;;10.60;99.90;;;;;;10189583;29;20278;-88
2023/10/28 17:31:40;;;;;;;14.17;10.43;;;10.60;99.90;;;;;;10189505;29;20928;-88
2023/10/28 17:36:42;;;;;;;17.20;11.13;;;10.60;99.90;;;;;;10210996;29;20232;-88
2023/10/28 17:41:49;;;;;;;29.27;20.70;;;10.50;99.90;;;;;;10192980;29;20318;-87
2023/10/28 17:46:51;;;;;;;38.67;29.97;;;10.70;99.90;;;;;;10189600;29;20234;-88
2023/10/28 17:51:55;;;;;;;28.40;20.17;;;10.50;99.90;;;;;;10205478;29;20325;-88
2023/10/28 17:57:00;;;;;;;26.03;17.03;;;10.40;99.90;;;;;;10206211;29;20243;-88
2023/10/28 18:02:02;;;;;;;29.87;18.73;;;10.50;99.90;;;;;;10188705;29;20270;-88
2023/10/28 18:07:05;;;;;;;25.80;18.83;;;10.50;99.90;;;;;;10230396;29;20230;-84
2023/10/28 18:12:09;;;;;;;29.13;18.43;;;10.60;99.90;;;;;;10238786;29;20242;-83
2023/10/28 18:17:11;;;;;;;25.57;16.47;;;10.60;99.90;;;;;;10241647;29;20242;-82
2023/10/28 18:22:14;;;;;;;26.33;16.30;;;10.70;99.90;;;;;;10242564;28;20730;-83
2023/10/28 18:27:17;;;;;;;34.83;26.23;;;10.90;99.90;;;;;;10226612;28;20261;-85
2023/10/28 18:32:20;;;;;;;28.40;20.37;;;10.80;99.90;;;;;;10234406;28;20712;-85
2023/10/28 18:37:23;;;;;;;33.40;21.33;;;10.90;99.90;;;;;;9894942;28;9999599;-85
2023/10/28 18:42:26;;;;;;;32.60;20.30;;;10.80;99.90;;;;;;10245288;29;20293;-85
2023/10/28 18:47:28;;;;;;;30.33;19.73;;;10.80;99.90;;;;;;10246660;28;20285;-85
2023/10/28 18:52:31;;;;;;;31.53;20.67;;;10.70;99.90;;;;;;10227694;29;20234;-85
2023/10/28 18:57:34;;;;;;;27.93;18.07;;;10.70;99.90;;;;;;10249129;28;21003;-84
2023/10/28 19:02:37;;;;;;;34.53;24.13;;;10.70;99.90;;;;;;10230968;29;20312;-85
2023/10/28 19:07:41;;;;;;;30.20;20.00;;;10.60;99.90;;;;;;10223968;29;20246;-84
2023/10/28 19:12:43;;;;;;;28.27;18.67;;;10.60;99.90;;;;;;10245800;28;20243;-85
2023/10/28 19:17:46;;;;;;;29.33;19.60;;;10.60;99.90;;;;;;10236292;28;20230;-84
2023/10/28 19:22:50;;;;;;;28.77;19.07;;;10.60;99.90;;;;;;10233590;28;20406;-84
2023/10/28 19:27:53;;;;;;;39.30;25.83;;;10.80;99.90;;;;;;10229446;29;20672;-85
2023/10/28 19:32:55;;;;;;;64.87;40.87;;;11.00;99.90;;;;;;10228836;29;20247;-84
2023/10/28 19:37:58;;;;;;;33.03;20.97;;;11.10;99.90;;;;;;10237551;29;20293;-84
2023/10/28 19:43:01;;;;;;;29.97;18.80;;;11.00;99.90;;;;;;10238867;28;20258;-85
2023/10/28 19:48:06;;;;;;;32.93;20.93;;;11.10;99.90;;;;;;10237733;29;20285;-84
2023/10/28 19:53:09;;;;;;;26.40;18.77;;;10.90;99.90;;;;;;10238905;28;20243;-84
2023/10/28 19:58:12;;;;;;;28.80;20.63;;;10.90;99.90;;;;;;10241401;29;20282;-84
2023/10/28 20:03:14;;;;;;;32.17;19.50;;;11.10;99.90;;;;;;10218759;28;20265;-85
2023/10/28 20:08:17;;;;;;;30.23;19.13;;;11.20;99.90;;;;;;10218979;29;20636;-85
2023/10/28 20:13:20;;;;;;;18.63;13.60;;;11.30;99.90;;;;;;10236295;28;20689;-85
2023/10/28 20:18:23;;;;;;;27.13;18.80;;;11.30;99.90;;;;;;10248330;28;20297;-84
2023/10/28 20:23:26;;;;;;;18.53;12.00;;;11.20;99.90;;;;;;10240594;29;20262;-85
2023/10/28 20:28:28;;;;;;;29.33;19.10;;;11.60;99.90;;;;;;10245770;28;20261;-85
2023/10/28 20:33:31;;;;;;;24.87;15.93;;;11.80;99.90;;;;;;10243107;29;20265;-84
2023/10/28 20:38:34;;;;;;;28.47;19.10;;;11.80;99.90;;;;;;10216020;29;20326;-84
2023/10/28 20:43:37;;;;;;;27.83;18.87;;;11.40;99.90;;;;;;10262643;28;20257;-84
2023/10/28 20:48:39;;;;;;;21.93;15.60;;;11.20;99.90;;;;;;10231275;28;20235;-84
2023/10/28 20:53:42;;;;;;;22.30;14.17;;;11.20;99.90;;;;;;10242435;28;20698;-85
2023/10/28 20:58:45;;;;;;;20.77;14.87;;;11.30;99.90;;;;;;10240775;29;20389;-84
2023/10/28 21:03:47;;;;;;;28.40;19.80;;;11.50;99.90;;;;;;10248335;28;20308;-84
2023/10/28 21:08:50;;;;;;;33.07;18.80;;;11.40;99.90;;;;;;10235546;28;20229;-84
2023/10/28 21:13:52;;;;;;;34.03;20.37;;;11.60;99.90;;;;;;10239795;29;20229;-84
2023/10/28 21:18:55;;;;;;;24.77;17.50;;;11.40;99.90;;;;;;10224065;29;20242;-85
2023/10/28 21:24:01;;;;;;;27.77;16.27;;;11.10;99.90;;;;;;10225562;29;20281;-84
2023/10/28 21:29:04;;;;;;;23.07;16.47;;;11.20;99.90;;;;;;10239492;28;20314;-84
2023/10/28 21:34:06;;;;;;;28.97;18.63;;;11.60;99.90;;;;;;10239519;29;20241;-84
2023/10/28 21:39:09;;;;;;;24.57;16.90;;;11.60;99.90;;;;;;10237462;29;20683;-84
2023/10/28 21:44:11;;;;;;;22.87;15.10;;;11.60;99.90;;;;;;10237264;29;20256;-84
2023/10/28 21:49:14;;;;;;;26.77;17.07;;;11.50;99.90;;;;;;10241262;29;20820;-84
2023/10/28 21:54:17;;;;;;;30.70;19.57;;;11.50;99.90;;;;;;10240675;28;20231;-84
2023/10/28 21:59:20;;;;;;;28.70;16.90;;;11.40;99.90;;;;;;10235892;28;20269;-84
2023/10/28 22:04:23;;;;;;;26.27;17.13;;;11.50;99.90;;;;;;10250061;29;20279;-84
2023/10/28 22:09:26;;;;;;;29.37;18.40;;;11.60;99.90;;;;;;10241524;29;20238;-84
2023/10/28 22:14:28;;;;;;;30.57;18.67;;;11.50;99.90;;;;;;10232342;28;20323;-84
2023/10/28 22:19:31;;;;;;;31.77;20.07;;;11.30;99.90;;;;;;10244965;28;20293;-84
2023/10/28 22:24:33;;;;;;;33.40;20.00;;;11.20;99.90;;;;;;10248592;28;20226;-84
2023/10/28 22:29:36;;;;;;;21.60;15.83;;;11.10;99.90;;;;;;10249108;28;20266;-84
2023/10/28 22:34:39;;;;;;;22.70;15.53;;;11.30;99.90;;;;;;10247814;28;20241;-84
2023/10/28 22:39:42;;;;;;;34.93;21.43;;;11.30;99.90;;;;;;10240433;29;21823;-84
2023/10/28 22:44:44;;;;;;;31.87;19.93;;;11.40;99.90;;;;;;10246005;29;20243;-84
2023/10/28 22:49:48;;;;;;;25.37;16.47;;;11.20;99.90;;;;;;10226138;28;20681;-84
2023/10/28 22:54:50;;;;;;;28.53;18.93;;;11.30;99.90;;;;;;10236159;28;20231;-84
2023/10/28 22:59:53;;;;;;;16.70;12.80;;;11.30;99.90;;;;;;10217854;28;20782;-85
2023/10/28 23:04:56;;;;;;;17.50;11.93;;;11.50;99.90;;;;;;10244807;28;20542;-84
2023/10/28 23:09:59;;;;;;;29.27;17.20;;;11.60;99.90;;;;;;9542311;29;10000797;-85
2023/10/28 23:15:01;;;;;;;20.10;15.07;;;11.90;99.90;;;;;;10242488;28;20229;-84
2023/10/28 23:20:04;;;;;;;17.97;13.83;;;11.80;99.90;;;;;;10239050;29;20328;-84
2023/10/28 23:25:11;;;;;;;21.73;14.53;;;11.90;99.90;;;;;;10236783;28;20318;-84
2023/10/28 23:30:13;;;;;;;26.53;16.70;;;11.80;99.90;;;;;;10230886;28;20270;-85
2023/10/28 23:35:15;;;;;;;28.33;18.07;;;11.90;99.90;;;;;;10220010;29;20242;-85
2023/10/28 23:40:18;;;;;;;31.20;19.80;;;11.70;99.90;;;;;;10244212;29;20333;-85
2023/10/28 23:45:20;;;;;;;34.07;20.73;;;11.30;99.90;;;;;;10245156;28;20230;-85
2023/10/28 23:50:23;;;;;;;25.80;16.23;;;11.40;99.90;;;;;;10244270;28;20306;-86
2023/10/28 23:55:26;;;;;;;18.53;14.17;;;11.40;99.90;;;;;;10243939;29;20297;-84
